San Francisco, California
Current Conditions -  °F | °C
As of 10:56 AM on Friday 31 Oct 2014 (Local Time) from KSFO Reporting Station
Moderate Rain Moderate Rain  
Wind Chill: 60°   Ceiling: 2100
Heat Index: 60°   Visibility: 2.5mi
Dew Point: 58°   Wind: 7mph
Humidity: 93%   Direction: 220°SW
Pressure: 29.88"   Gusts: NA
Location:  37.78°N, 122.42°W
Report Text: KSFO 311756Z 22006KT 2 1/2SM R28R/4000VP6000FT RA BR FEW010 BKN021 OVC033 16/14 A2988 RMK AO2 SLP116 P0008 60013 T01560144 10178 20156 51007
Loading
Personal Weather Stations






























Interactive Weather Map
Tropical Storm Tracking
New forecast layout! Learn more

10-Day Weather Forecast

Advertisements
Track Severe Weather on mobile